Time;durP1;ratioP1;P1;durP2;ratioP2;P2;SDS_P1;SDS_P2;PMS_P1;PMS_P2;Temp;Humidity;BMP_temperature;BMP_pressure;BME280_temperature;BME280_humidity;BME280_pressure;Samples;Min_cycle;Max_cycle;Signal;HPM_P1;HPM_P2
2022/04/30 00:00:06;;;;;;;9.88;6.35;;;13.60;58.70;;;;;;5091838;28;20020;-72
2022/04/30 00:02:32;;;;;;;10.43;6.35;;;13.60;58.70;;;;;;5091456;28;20040;-72
2022/04/30 00:04:57;;;;;;;10.00;6.20;;;13.60;58.90;;;;;;5092040;28;20387;-72
2022/04/30 00:07:23;;;;;;;11.52;6.53;;;13.50;59.00;;;;;;5091463;28;20028;-72
2022/04/30 00:09:49;;;;;;;10.05;6.70;;;13.50;59.40;;;;;;5091767;28;20412;-72
2022/04/30 00:12:18;;;;;;;12.20;6.10;;;13.40;59.60;;;;;;5091644;28;20357;-72
2022/04/30 00:14:46;;;;;;;10.10;6.68;;;13.40;59.80;;;;;;5091118;28;20059;-72
2022/04/30 00:17:14;;;;;;;9.38;6.65;;;13.40;60.00;;;;;;5091778;28;20029;-72
2022/04/30 00:19:40;;;;;;;10.52;7.22;;;13.30;60.60;;;;;;5091235;28;20388;-72
2022/04/30 00:22:07;;;;;;;12.70;6.55;;;13.30;60.90;;;;;;5094913;28;20039;-72
2022/04/30 00:24:32;;;;;;;9.15;6.43;;;13.30;60.90;;;;;;5094831;28;20029;-72
2022/04/30 00:27:01;;;;;;;9.25;6.43;;;13.30;61.20;;;;;;5095692;28;20097;-72
2022/04/30 00:29:29;;;;;;;10.05;6.22;;;13.30;61.20;;;;;;5094800;28;20032;-72
2022/04/30 00:31:55;;;;;;;10.73;6.43;;;13.30;61.30;;;;;;5095466;28;20032;-71
2022/04/30 00:34:21;;;;;;;12.68;7.07;;;13.30;61.50;;;;;;5095537;28;20024;-72
2022/04/30 00:36:47;;;;;;;7.78;6.68;;;13.30;61.30;;;;;;5094577;28;20465;-71
2022/04/30 00:39:13;;;;;;;10.63;6.25;;;13.30;61.20;;;;;;5095773;28;20107;-72
2022/04/30 00:41:43;;;;;;;10.73;6.35;;;13.30;61.20;;;;;;5094496;28;20507;-72
2022/04/30 00:44:30;;;;;;;13.35;6.38;;;13.30;61.20;;;;;;5094947;28;20024;-72
2022/04/30 00:46:56;;;;;;;12.52;6.85;;;13.30;61.30;;;;;;5095311;28;20028;-72
2022/04/30 00:49:22;;;;;;;9.40;6.45;;;13.30;61.10;;;;;;5095250;28;20028;-72
2022/04/30 00:51:50;;;;;;;11.05;6.78;;;13.30;61.30;;;;;;5094724;28;20491;-72
2022/04/30 00:54:20;;;;;;;7.72;6.50;;;13.30;61.40;;;;;;5094983;28;20020;-71
2022/04/30 00:56:52;;;;;;;12.35;6.57;;;13.20;61.70;;;;;;5094424;28;20339;-71
2022/04/30 00:59:19;;;;;;;9.65;6.47;;;13.20;62.00;;;;;;5095040;28;20054;-72
2022/04/30 01:01:48;;;;;;;13.90;6.10;;;13.10;61.90;;;;;;5093916;28;20504;-71
2022/04/30 01:04:15;;;;;;;11.23;6.60;;;13.10;62.40;;;;;;5094929;28;20134;-72
2022/04/30 01:06:57;;;;;;;8.10;6.30;;;13.00;62.40;;;;;;5094208;28;20020;-72
2022/04/30 01:09:31;;;;;;;11.13;7.40;;;13.10;62.40;;;;;;5094930;28;20105;-72
2022/04/30 01:12:08;;;;;;;11.32;6.90;;;13.00;62.40;;;;;;5094718;28;20040;-73
2022/04/30 01:14:34;;;;;;;12.20;6.63;;;13.00;62.20;;;;;;5093801;28;20052;-72
2022/04/30 01:17:05;;;;;;;11.23;6.95;;;13.00;62.40;;;;;;5094800;28;20027;-72
2022/04/30 01:19:36;;;;;;;8.35;6.57;;;13.00;62.80;;;;;;5094095;28;20024;-72
2022/04/30 01:22:09;;;;;;;12.35;6.90;;;12.90;62.90;;;;;;5094741;28;20032;-72
2022/04/30 01:24:36;;;;;;;14.20;7.80;;;12.90;63.00;;;;;;5093748;28;20461;-73
2022/04/30 01:27:04;;;;;;;12.63;7.65;;;13.00;63.00;;;;;;5094644;28;20020;-72
2022/04/30 01:29:30;;;;;;;10.45;7.70;;;12.90;62.80;;;;;;5094013;28;20107;-73
2022/04/30 01:37:27;;;;;;;11.13;6.97;;;12.90;63.00;;;;;;5094250;28;20078;-72
2022/04/30 01:40:00;;;;;;;11.90;7.53;;;12.90;63.20;;;;;;5093525;28;20418;-73
2022/04/30 01:42:38;;;;;;;12.10;6.38;;;12.80;62.90;;;;;;5094084;28;20047;-73
2022/04/30 01:45:05;;;;;;;11.68;7.20;;;12.80;63.30;;;;;;5094080;28;20056;-72
2022/04/30 01:47:33;;;;;;;13.57;6.97;;;12.80;63.50;;;;;;5093357;28;20476;-71
2022/04/30 01:50:00;;;;;;;11.93;6.75;;;12.80;63.50;;;;;;5094023;28;20028;-72
2022/04/30 01:52:25;;;;;;;10.75;7.22;;;12.70;63.50;;;;;;5094004;28;20048;-72
2022/04/30 01:54:51;;;;;;;12.68;6.85;;;12.70;63.80;;;;;;5093160;28;20059;-72
2022/04/30 01:57:23;;;;;;;10.25;7.10;;;12.70;63.90;;;;;;5093883;28;20456;-72
2022/04/30 01:59:51;;;;;;;10.98;7.70;;;12.70;64.60;;;;;;5093218;28;20032;-72
2022/04/30 02:02:18;;;;;;;16.50;6.93;;;12.60;64.50;;;;;;5093688;28;20032;-72
2022/04/30 02:04:43;;;;;;;12.95;6.88;;;12.60;64.90;;;;;;5093120;28;20028;-72
2022/04/30 02:07:10;;;;;;;12.45;6.97;;;12.60;65.00;;;;;;5093790;28;20032;-72
2022/04/30 02:09:36;;;;;;;10.30;6.70;;;12.60;65.50;;;;;;5092731;28;20377;-72
2022/04/30 02:12:02;;;;;;;12.50;7.18;;;12.60;65.40;;;;;;5093514;28;20035;-71
2022/04/30 02:14:30;;;;;;;10.48;7.13;;;12.50;65.50;;;;;;5093262;28;20138;-72
2022/04/30 02:17:00;;;;;;;11.15;6.82;;;12.60;65.40;;;;;;5092892;28;20085;-71
2022/04/30 02:19:28;;;;;;;12.47;7.30;;;12.60;64.90;;;;;;5093637;28;20036;-72
2022/04/30 02:21:58;;;;;;;12.70;7.45;;;12.60;65.60;;;;;;5092640;28;20277;-72
2022/04/30 02:24:30;;;;;;;10.80;7.25;;;12.50;65.10;;;;;;5093140;28;20024;-72
2022/04/30 02:26:56;;;;;;;12.88;7.07;;;12.60;65.40;;;;;;5092712;28;20023;-72
2022/04/30 02:29:22;;;;;;;11.27;6.45;;;12.50;65.30;;;;;;5093230;28;20020;-72
2022/04/30 02:31:47;;;;;;;10.75;7.10;;;12.50;65.40;;;;;;5092353;28;20052;-72
2022/04/30 02:34:13;;;;;;;10.68;6.63;;;12.50;65.50;;;;;;5093247;28;20016;-72
2022/04/30 02:36:39;;;;;;;9.75;7.22;;;12.50;65.40;;;;;;5091821;28;20028;-72
2022/04/30 02:39:04;;;;;;;8.85;6.68;;;12.50;65.80;;;;;;5093139;28;20039;-73
2022/04/30 02:41:30;;;;;;;13.07;7.38;;;12.50;65.60;;;;;;5092927;28;20487;-73
2022/04/30 02:43:57;;;;;;;7.38;6.10;;;12.50;66.10;;;;;;5091475;28;20016;-72
2022/04/30 02:46:24;;;;;;;9.32;6.65;;;12.50;66.00;;;;;;5092917;28;20032;-73
2022/04/30 02:48:49;;;;;;;9.82;6.55;;;12.40;65.60;;;;;;5092183;28;20123;-73
2022/04/30 02:51:15;;;;;;;9.63;6.80;;;12.40;65.70;;;;;;5092739;28;20153;-72
2022/04/30 02:53:43;;;;;;;13.52;7.13;;;12.50;65.70;;;;;;5092255;28;20024;-73
2022/04/30 02:56:12;;;;;;;9.10;6.47;;;12.50;65.90;;;;;;5092805;28;20518;-72
2022/04/30 03:01:22;;;;;;;11.05;6.40;;;12.50;65.30;;;;;;5092065;28;20495;-73
2022/04/30 03:03:48;;;;;;;13.77;7.03;;;12.40;65.60;;;;;;5092008;28;20024;-73
2022/04/30 03:06:15;;;;;;;9.32;6.50;;;12.40;66.30;;;;;;5092570;28;20024;-73
2022/04/30 03:08:43;;;;;;;7.82;6.47;;;12.40;66.60;;;;;;5092229;28;20418;-73
2022/04/30 03:11:09;;;;;;;11.90;6.63;;;12.40;66.50;;;;;;5092482;28;20028;-73
2022/04/30 03:13:36;;;;;;;10.63;7.13;;;12.30;66.60;;;;;;5091933;28;20529;-73
2022/04/30 03:21:46;;;;;;;13.70;7.38;;;12.30;66.70;;;;;;5092216;28;20081;-73
2022/04/30 03:24:15;;;;;;;9.88;6.28;;;12.20;66.70;;;;;;5092581;28;20028;-72
2022/04/30 03:26:43;;;;;;;9.27;6.45;;;12.30;66.40;;;;;;5090485;28;20487;-73
2022/04/30 03:29:09;;;;;;;12.88;6.70;;;12.30;65.40;;;;;;5092531;28;20062;-72
2022/04/30 03:31:35;;;;;;;11.65;7.35;;;12.30;65.20;;;;;;5092456;28;20078;-73
2022/04/30 03:34:01;;;;;;;15.68;7.20;;;12.20;65.10;;;;;;5091588;28;20035;-72
2022/04/30 03:36:27;;;;;;;9.57;6.53;;;12.20;64.30;;;;;;5092191;28;20099;-72
2022/04/30 03:38:53;;;;;;;12.90;7.00;;;12.30;64.10;;;;;;5091478;28;20052;-73
2022/04/30 03:41:19;;;;;;;16.02;6.93;;;12.30;63.70;;;;;;5092154;28;20481;-73
2022/04/30 03:43:44;;;;;;;11.52;6.53;;;12.20;63.60;;;;;;5091552;28;20111;-73
2022/04/30 03:46:10;;;;;;;11.35;7.28;;;12.20;63.10;;;;;;5092105;28;20456;-73
2022/04/30 03:48:36;;;;;;;9.90;6.28;;;12.20;62.90;;;;;;5092127;28;20032;-73
2022/04/30 03:51:02;;;;;;;13.90;7.18;;;12.20;62.90;;;;;;5091379;28;20028;-73
2022/04/30 03:53:28;;;;;;;11.35;6.97;;;12.20;62.60;;;;;;5092040;28;20020;-73
2022/04/30 03:55:53;;;;;;;9.77;6.55;;;12.10;62.20;;;;;;5092976;28;20468;-72
2022/04/30 03:58:19;;;;;;;15.68;7.38;;;12.10;62.20;;;;;;5095750;28;20123;-72
2022/04/30 04:00:48;;;;;;;14.68;7.70;;;12.10;62.60;;;;;;5095728;28;20086;-73
2022/04/30 04:03:14;;;;;;;10.10;6.55;;;12.10;62.70;;;;;;5095689;28;20453;-72
2022/04/30 04:05:40;;;;;;;13.45;7.47;;;12.10;62.80;;;;;;5095546;28;20067;-72
2022/04/30 04:08:11;;;;;;;13.23;6.80;;;12.10;63.20;;;;;;5094766;28;20522;-73
2022/04/30 04:10:38;;;;;;;9.55;6.10;;;12.10;63.80;;;;;;5095929;28;20035;-73
2022/04/30 04:18:32;;;;;;;10.10;6.40;;;12.20;65.20;;;;;;5095703;28;20498;-73
2022/04/30 04:20:57;;;;;;;15.13;6.93;;;12.20;65.20;;;;;;5095102;28;20067;-72
2022/04/30 04:23:23;;;;;;;9.95;6.50;;;12.20;65.50;;;;;;5098142;28;20028;-73
2022/04/30 04:26:00;;;;;;;11.52;6.72;;;12.10;66.20;;;;;;5103559;28;20080;-73
2022/04/30 04:28:29;;;;;;;9.10;7.47;;;12.10;66.10;;;;;;5102547;28;20114;-73
2022/04/30 04:30:57;;;;;;;13.25;7.03;;;12.20;66.10;;;;;;5102624;28;20081;-73
2022/04/30 04:33:22;;;;;;;11.07;6.50;;;12.20;65.80;;;;;;5096270;28;20028;-72
2022/04/30 04:35:48;;;;;;;12.90;7.05;;;12.20;65.40;;;;;;5094958;28;20035;-72
2022/04/30 04:38:14;;;;;;;16.70;7.47;;;12.20;64.90;;;;;;5095078;28;20140;-72
2022/04/30 04:40:40;;;;;;;15.73;8.10;;;12.20;65.10;;;;;;5095060;28;20032;-72
2022/04/30 04:43:06;;;;;;;15.57;8.18;;;12.30;64.50;;;;;;5094376;28;20078;-72
2022/04/30 04:45:31;;;;;;;17.10;7.30;;;12.30;63.80;;;;;;5095464;28;20028;-73
2022/04/30 04:47:57;;;;;;;17.83;7.97;;;12.30;64.10;;;;;;5094880;28;20381;-72
2022/04/30 04:50:23;;;;;;;10.25;7.40;;;12.30;63.60;;;;;;5095006;28;20457;-73
2022/04/30 04:52:49;;;;;;;12.93;7.78;;;12.40;63.00;;;;;;5094269;28;20031;-73
2022/04/30 04:55:15;;;;;;;15.02;7.60;;;12.40;61.70;;;;;;5094908;28;20024;-71
2022/04/30 04:57:41;;;;;;;10.20;6.57;;;12.40;62.00;;;;;;5095002;28;20032;-72
2022/04/30 05:00:10;;;;;;;11.90;7.68;;;12.40;62.00;;;;;;5094678;28;20020;-73
2022/04/30 05:02:36;;;;;;;11.65;7.57;;;12.40;61.40;;;;;;5094779;28;20036;-73
2022/04/30 05:05:02;;;;;;;13.45;7.60;;;12.50;61.30;;;;;;5092880;28;20444;-73
2022/04/30 05:07:28;;;;;;;10.93;7.60;;;12.60;61.40;;;;;;5093059;28;20025;-73
2022/04/30 05:09:53;;;;;;;12.75;8.25;;;12.60;60.40;;;;;;5094069;28;20030;-73
2022/04/30 05:12:19;;;;;;;13.93;7.40;;;12.60;60.10;;;;;;5094586;28;20059;-72
2022/04/30 05:15:03;;;;;;;9.77;6.90;;;12.70;59.40;;;;;;5093494;28;20222;-73
2022/04/30 05:17:29;;;;;;;13.68;8.18;;;12.80;59.50;;;;;;5094539;28;20111;-72
2022/04/30 05:19:55;;;;;;;15.88;8.07;;;12.80;59.10;;;;;;5092673;28;20094;-72
2022/04/30 05:22:20;;;;;;;10.43;7.78;;;12.80;58.60;;;;;;5094333;28;20039;-74
2022/04/30 05:24:46;;;;;;;13.23;7.72;;;12.90;58.90;;;;;;5093713;28;20027;-72
2022/04/30 05:27:12;;;;;;;12.55;7.55;;;13.00;58.30;;;;;;5094234;28;20028;-72
2022/04/30 05:29:37;;;;;;;14.63;7.38;;;13.00;57.50;;;;;;5092423;28;20375;-73
2022/04/30 05:32:04;;;;;;;11.35;7.60;;;13.00;56.60;;;;;;5096642;28;20264;-73
2022/04/30 05:34:30;;;;;;;17.05;8.00;;;13.10;56.30;;;;;;5093999;28;20492;-73
2022/04/30 05:36:56;;;;;;;13.18;7.50;;;13.10;56.00;;;;;;5093467;28;20055;-72
2022/04/30 05:39:21;;;;;;;13.38;7.82;;;13.20;55.70;;;;;;5093954;28;20027;-73
2022/04/30 05:41:47;;;;;;;12.23;7.82;;;13.30;55.60;;;;;;5093274;28;20433;-73
2022/04/30 05:44:13;;;;;;;11.80;7.90;;;13.30;55.60;;;;;;5094020;28;20111;-72
2022/04/30 05:46:39;;;;;;;11.57;7.60;;;13.40;55.20;;;;;;5092686;28;20404;-74
2022/04/30 05:49:04;;;;;;;12.30;7.97;;;13.50;55.00;;;;;;5093336;28;20272;-73
2022/04/30 05:51:30;;;;;;;10.10;7.45;;;13.50;55.40;;;;;;5094073;28;20350;-73
2022/04/30 05:53:57;;;;;;;13.02;7.75;;;13.60;55.20;;;;;;5093071;28;20540;-73
2022/04/30 05:56:23;;;;;;;13.52;7.72;;;13.70;54.80;;;;;;5093630;28;20039;-74
2022/04/30 05:58:48;;;;;;;12.07;7.78;;;13.90;54.20;;;;;;5108795;28;20107;-73
2022/04/30 06:01:14;;;;;;;14.75;8.18;;;14.00;53.50;;;;;;5093374;28;20043;-73
2022/04/30 06:03:40;;;;;;;13.05;7.43;;;14.20;53.50;;;;;;5093309;28;20024;-73
2022/04/30 06:06:05;;;;;;;12.82;8.50;;;14.50;53.60;;;;;;5092909;28;20400;-74
2022/04/30 06:08:31;;;;;;;10.38;7.60;;;15.10;53.50;;;;;;5093427;28;20100;-74
2022/04/30 06:10:58;;;;;;;13.00;8.02;;;15.70;51.40;;;;;;5092962;28;20149;-76
2022/04/30 06:13:24;;;;;;;11.05;7.57;;;16.10;48.60;;;;;;5093125;28;20070;-73
2022/04/30 06:15:49;;;;;;;10.43;7.13;;;16.20;47.60;;;;;;5092957;28;20435;-74
2022/04/30 06:18:16;;;;;;;15.55;7.60;;;16.30;47.70;;;;;;5092737;28;20587;-74
2022/04/30 06:20:42;;;;;;;14.32;8.13;;;16.40;47.40;;;;;;5093093;28;20084;-74
2022/04/30 06:23:08;;;;;;;15.43;8.25;;;16.60;47.60;;;;;;5092885;28;20107;-74
2022/04/30 06:25:35;;;;;;;10.95;7.65;;;17.00;47.10;;;;;;5093182;28;20032;-73
2022/04/30 06:28:02;;;;;;;13.50;7.78;;;17.10;45.30;;;;;;5092219;28;20044;-74
2022/04/30 06:30:27;;;;;;;13.15;7.72;;;17.30;45.50;;;;;;5093120;28;20069;-73
2022/04/30 06:32:53;;;;;;;10.13;8.35;;;17.40;45.30;;;;;;5091959;28;20038;-73
2022/04/30 06:35:19;;;;;;;13.70;8.45;;;17.50;45.20;;;;;;5092290;28;20538;-74
2022/04/30 06:37:45;;;;;;;11.00;7.90;;;17.70;44.90;;;;;;5092846;28;20024;-74
2022/04/30 06:40:12;;;;;;;10.48;7.97;;;17.80;44.40;;;;;;5092213;28;20031;-73
2022/04/30 06:42:47;;;;;;;15.30;8.55;;;17.90;44.70;;;;;;5092531;28;20028;-73
2022/04/30 06:45:14;;;;;;;12.85;8.10;;;18.30;44.70;;;;;;5092941;28;20028;-73
2022/04/30 06:47:40;;;;;;;14.52;7.88;;;18.90;43.00;;;;;;5092586;28;20034;-73
2022/04/30 06:50:07;;;;;;;13.35;7.88;;;19.50;41.20;;;;;;5092089;28;20369;-72
2022/04/30 06:52:33;;;;;;;12.30;7.25;;;20.50;40.60;;;;;;5092747;28;20121;-74
2022/04/30 06:57:45;;;;;;;15.57;7.93;;;21.60;37.70;;;;;;5092304;28;20521;-77
2022/04/30 07:02:56;;;;;;;13.68;7.55;;;21.30;36.50;;;;;;5084339;28;20075;-74
2022/04/30 07:05:22;;;;;;;13.50;7.38;;;21.30;36.40;;;;;;5092435;28;20059;-70
2022/04/30 07:07:48;;;;;;;13.75;7.95;;;21.40;37.30;;;;;;5091987;28;20020;-75
2022/04/30 07:10:14;;;;;;;11.05;7.20;;;21.50;37.80;;;;;;5090856;28;20020;-70
2022/04/30 07:12:39;;;;;;;15.52;7.07;;;22.20;37.90;;;;;;5091155;28;20496;-70
2022/04/30 07:15:06;;;;;;;17.08;7.45;;;23.50;36.60;;;;;;5090929;28;20083;-70
2022/04/30 07:17:32;;;;;;;16.70;7.50;;;25.00;34.10;;;;;;5091755;28;20105;-68
2022/04/30 07:19:57;;;;;;;9.10;7.35;;;26.20;32.10;;;;;;5090976;28;20497;-70
2022/04/30 07:22:23;;;;;;;11.55;7.70;;;26.70;30.90;;;;;;5091395;28;20469;-74
2022/04/30 07:24:51;;;;;;;12.20;7.57;;;27.20;30.50;;;;;;5091739;28;20472;-75
2022/04/30 07:27:16;;;;;;;13.02;7.45;;;27.90;29.10;;;;;;5091191;28;20043;-75
2022/04/30 07:29:43;;;;;;;11.55;7.28;;;28.50;28.10;;;;;;5091532;28;20100;-74
2022/04/30 07:32:09;;;;;;;13.57;7.63;;;28.70;27.80;;;;;;5090829;28;20032;-74
2022/04/30 07:34:36;;;;;;;17.05;7.57;;;28.90;27.70;;;;;;5092088;28;20101;-74
2022/04/30 07:37:02;;;;;;;12.35;7.68;;;29.20;27.90;;;;;;5091973;28;20082;-74
2022/04/30 07:39:27;;;;;;;11.65;8.25;;;29.00;27.00;;;;;;5092275;28;20024;-75
2022/04/30 07:41:54;;;;;;;12.70;8.18;;;29.10;27.20;;;;;;5091208;28;20110;-73
2022/04/30 07:44:20;;;;;;;8.98;6.82;;;29.30;27.10;;;;;;5092252;28;20462;-75
2022/04/30 07:46:46;;;;;;;12.13;7.40;;;29.90;27.80;;;;;;5092112;28;20115;-75
2022/04/30 07:49:12;;;;;;;14.55;8.05;;;30.50;27.30;;;;;;5091303;28;20520;-76
2022/04/30 07:51:53;;;;;;;10.20;7.25;;;31.10;27.00;;;;;;5092210;28;20156;-75
2022/04/30 07:54:19;;;;;;;11.13;6.97;;;31.40;25.90;;;;;;5092115;28;20086;-74
2022/04/30 07:56:46;;;;;;;8.52;6.80;;;31.40;26.00;;;;;;5091807;28;20028;-75
2022/04/30 07:59:11;;;;;;;9.52;6.82;;;31.50;26.00;;;;;;5091435;28;20235;-75
2022/04/30 08:01:37;;;;;;;12.45;7.03;;;31.20;26.20;;;;;;5092062;28;20028;-75
2022/04/30 08:04:03;;;;;;;12.68;6.80;;;31.20;26.50;;;;;;5091310;28;20389;-74
2022/04/30 08:06:28;;;;;;;9.27;7.07;;;31.20;26.20;;;;;;5091934;28;20055;-75
2022/04/30 08:08:54;;;;;;;9.90;7.03;;;30.80;26.40;;;;;;5090941;28;20024;-74
2022/04/30 08:11:20;;;;;;;12.27;7.10;;;30.70;26.40;;;;;;5091980;28;20036;-74
2022/04/30 08:13:45;;;;;;;9.18;6.15;;;30.50;27.10;;;;;;5107253;28;20016;-74
2022/04/30 08:16:11;;;;;;;12.32;7.00;;;30.50;27.00;;;;;;5090565;28;20036;-74
2022/04/30 08:18:38;;;;;;;12.32;7.90;;;30.00;26.50;;;;;;5091480;28;20024;-74
2022/04/30 08:21:05;;;;;;;8.63;7.07;;;29.50;26.70;;;;;;5091056;28;20556;-75
2022/04/30 08:23:33;;;;;;;13.02;7.85;;;29.10;27.30;;;;;;5091548;28;20101;-75
2022/04/30 08:25:59;;;;;;;12.40;7.80;;;28.80;27.50;;;;;;5091118;28;20097;-75
2022/04/30 08:28:25;;;;;;;12.43;8.30;;;28.80;28.10;;;;;;5091847;28;20048;-75
2022/04/30 08:30:50;;;;;;;14.27;8.25;;;28.40;27.70;;;;;;5091729;28;20031;-75
2022/04/30 08:33:16;;;;;;;10.90;8.77;;;28.50;27.70;;;;;;5091271;28;20381;-75
2022/04/30 08:35:42;;;;;;;16.38;8.80;;;28.10;28.10;;;;;;5091232;28;20112;-75
2022/04/30 08:38:08;;;;;;;12.02;8.40;;;27.60;28.90;;;;;;5091059;28;20372;-73
2022/04/30 08:40:35;;;;;;;12.82;8.05;;;27.10;28.80;;;;;;5091762;28;20050;-74
2022/04/30 08:43:12;;;;;;;11.40;7.35;;;26.50;28.90;;;;;;5094137;28;20072;-73
2022/04/30 08:45:38;;;;;;;11.32;7.55;;;26.20;29.80;;;;;;5111262;28;20406;-74
2022/04/30 08:48:11;;;;;;;10.32;7.22;;;25.90;29.90;;;;;;5094620;28;20084;-75
2022/04/30 08:50:39;;;;;;;8.32;6.00;;;25.70;29.80;;;;;;5095198;28;20016;-74
2022/04/30 08:53:05;;;;;;;8.25;6.35;;;25.50;30.00;;;;;;5094534;28;20021;-73
2022/04/30 08:55:31;;;;;;;9.40;7.30;;;25.30;30.00;;;;;;5095214;28;20028;-75
2022/04/30 08:57:57;;;;;;;9.73;7.13;;;25.00;30.00;;;;;;5094101;28;20032;-73
2022/04/30 09:00:23;;;;;;;7.05;6.07;;;24.80;30.70;;;;;;5110840;28;20401;-74
2022/04/30 09:03:08;;;;;;;11.00;7.10;;;24.70;31.30;;;;;;5094992;28;20125;-74
2022/04/30 09:05:35;;;;;;;9.55;6.35;;;24.50;31.00;;;;;;5094995;28;20032;-74
2022/04/30 09:08:02;;;;;;;10.98;5.95;;;24.50;31.70;;;;;;5093978;28;20024;-73
2022/04/30 09:10:30;;;;;;;13.60;6.40;;;24.40;31.40;;;;;;5094456;28;20465;-74
2022/04/30 09:13:14;;;;;;;11.95;7.13;;;24.50;31.00;;;;;;5094303;28;20468;-74
2022/04/30 09:15:44;;;;;;;11.23;7.75;;;24.40;31.50;;;;;;5094155;28;20062;-74
2022/04/30 09:18:11;;;;;;;10.95;7.15;;;24.40;31.30;;;;;;5094074;28;20111;-74
2022/04/30 09:20:47;;;;;;;10.93;7.50;;;24.30;31.70;;;;;;5094239;28;20016;-75
2022/04/30 09:23:23;;;;;;;12.85;7.60;;;24.20;30.50;;;;;;5093926;28;20036;-74
2022/04/30 09:25:53;;;;;;;12.45;6.53;;;23.80;30.90;;;;;;5094600;28;20024;-75
2022/04/30 09:28:33;;;;;;;9.15;6.57;;;23.60;31.80;;;;;;5093884;28;20024;-74
2022/04/30 09:31:20;;;;;;;11.77;7.18;;;23.60;32.60;;;;;;5093862;28;20062;-72
2022/04/30 09:33:59;;;;;;;12.18;6.45;;;23.40;30.40;;;;;;5094143;28;20028;-74
2022/04/30 09:39:20;;;;;;;12.57;7.07;;;23.20;31.20;;;;;;5093343;28;20404;-74
2022/04/30 09:41:46;;;;;;;8.93;6.57;;;23.00;30.00;;;;;;5094356;28;20031;-76
2022/04/30 09:44:14;;;;;;;14.80;6.40;;;22.80;31.00;;;;;;5093843;28;20031;-73
2022/04/30 09:46:40;;;;;;;10.13;6.20;;;22.70;31.60;;;;;;5093726;28;20024;-73
2022/04/30 09:54:39;;;;;;;10.60;6.40;;;22.40;33.00;;;;;;5093529;28;20043;-74
2022/04/30 09:57:07;;;;;;;9.93;6.65;;;22.20;34.30;;;;;;5093286;28;20024;-74
2022/04/30 09:59:38;;;;;;;11.35;7.47;;;22.30;34.30;;;;;;5093684;28;20492;-74
2022/04/30 10:02:05;;;;;;;9.55;7.07;;;22.20;33.40;;;;;;5092818;28;20032;-74
2022/04/30 10:04:33;;;;;;;11.02;7.05;;;22.20;33.60;;;;;;5093657;28;20062;-73
2022/04/30 10:07:00;;;;;;;11.70;7.03;;;22.20;34.00;;;;;;5093686;28;20031;-74
2022/04/30 10:09:37;;;;;;;11.23;7.28;;;22.20;33.80;;;;;;5093653;28;20028;-74
2022/04/30 10:12:09;;;;;;;10.82;7.15;;;22.20;33.90;;;;;;5093137;28;20077;-76
2022/04/30 10:14:54;;;;;;;10.10;7.38;;;22.20;34.40;;;;;;5093772;28;20082;-74
2022/04/30 10:17:23;;;;;;;10.07;6.93;;;22.10;35.00;;;;;;5092972;28;20093;-73
2022/04/30 10:20:28;;;;;;;12.10;8.20;;;22.10;35.40;;;;;;5093521;28;20389;-73
2022/04/30 10:22:59;;;;;;;11.25;7.40;;;22.20;35.60;;;;;;5093045;28;20538;-73
2022/04/30 10:25:33;;;;;;;11.95;7.35;;;22.30;35.40;;;;;;5092839;28;20107;-74
2022/04/30 10:28:03;;;;;;;9.85;7.22;;;22.20;34.70;;;;;;5093295;28;20024;-74
2022/04/30 10:30:29;;;;;;;10.70;7.18;;;22.20;34.80;;;;;;5093074;28;20020;-75
2022/04/30 10:33:02;;;;;;;11.75;7.57;;;22.20;34.30;;;;;;5093329;28;20433;-74
2022/04/30 10:35:44;;;;;;;16.77;7.65;;;22.10;34.10;;;;;;5092976;28;20469;-74
2022/04/30 10:38:19;;;;;;;9.40;6.97;;;22.00;34.10;;;;;;5092611;28;20153;-74
2022/04/30 10:40:46;;;;;;;13.95;6.93;;;22.00;34.00;;;;;;5093124;28;20103;-73
2022/04/30 10:43:27;;;;;;;9.50;6.78;;;22.00;34.00;;;;;;5092366;28;20039;-73
2022/04/30 10:45:53;;;;;;;13.38;7.97;;;22.00;34.30;;;;;;5092877;28;20036;-74
2022/04/30 10:48:22;;;;;;;9.82;7.25;;;22.00;34.00;;;;;;5092306;28;20076;-73
2022/04/30 10:51:00;;;;;;;9.63;7.45;;;22.00;34.60;;;;;;5092959;28;20020;-74
2022/04/30 10:53:28;;;;;;;9.98;7.38;;;22.00;34.30;;;;;;5092359;28;20091;-74
2022/04/30 10:55:54;;;;;;;11.93;7.53;;;22.00;34.30;;;;;;5092865;28;20089;-74
2022/04/30 10:58:41;;;;;;;9.73;7.00;;;22.10;34.80;;;;;;5091683;28;20370;-73
2022/04/30 11:01:14;;;;;;;7.72;6.47;;;22.20;35.20;;;;;;5092034;28;20071;-73
2022/04/30 11:03:44;;;;;;;10.52;7.35;;;22.20;35.20;;;;;;5092541;28;20107;-74
2022/04/30 11:06:11;;;;;;;8.80;7.05;;;22.30;34.70;;;;;;5091120;28;20039;-73
2022/04/30 11:08:37;;;;;;;10.82;6.20;;;22.40;34.90;;;;;;5091154;28;20494;-74
2022/04/30 11:11:03;;;;;;;11.23;4.82;;;22.50;34.60;;;;;;5092466;28;20032;-74
2022/04/30 11:13:29;;;;;;;11.70;5.18;;;22.50;33.90;;;;;;5092053;28;20047;-74
2022/04/30 11:15:58;;;;;;;10.15;5.10;;;22.40;31.60;;;;;;5092258;28;20032;-73
2022/04/30 11:18:25;;;;;;;8.70;5.10;;;22.40;32.80;;;;;;5092062;28;20195;-72
2022/04/30 11:21:00;;;;;;;6.03;4.10;;;22.30;33.10;;;;;;5090941;28;20091;-71
2022/04/30 11:23:27;;;;;;;6.22;4.30;;;22.30;31.80;;;;;;5089880;28;20032;-72
2022/04/30 11:25:53;;;;;;;9.57;4.20;;;22.20;31.80;;;;;;5091100;28;20032;-72
2022/04/30 11:28:18;;;;;;;7.88;4.28;;;22.10;31.40;;;;;;5091553;28;20103;-73
2022/04/30 11:30:45;;;;;;;6.90;4.00;;;22.00;31.40;;;;;;5090606;28;20473;-73
2022/04/30 11:33:12;;;;;;;6.05;4.43;;;22.00;31.30;;;;;;5089994;28;20103;-72
2022/04/30 11:35:38;;;;;;;6.00;4.30;;;22.00;32.50;;;;;;5088097;28;20066;-72
2022/04/30 11:38:09;;;;;;;5.68;3.67;;;22.00;32.50;;;;;;5090484;28;20054;-73
2022/04/30 11:40:35;;;;;;;;;;;22.00;31.80;;;;;;5090978;28;20426;-73
2022/04/30 11:43:02;;;;;;;6.07;3.55;;;21.90;31.00;;;;;;5090551;28;19908;-74
2022/04/30 11:45:32;;;;;;;10.63;4.53;;;21.80;31.80;;;;;;5090144;28;20358;-74
2022/04/30 11:48:03;;;;;;;7.05;4.03;;;21.80;31.70;;;;;;5090646;28;20028;-74
2022/04/30 11:50:30;;;;;;;6.43;4.10;;;21.70;32.20;;;;;;5090131;28;20054;-73
2022/04/30 11:52:56;;;;;;;6.72;3.78;;;21.60;32.70;;;;;;5090785;28;20028;-74
2022/04/30 11:55:23;;;;;;;5.80;3.40;;;21.70;32.90;;;;;;5090428;28;20025;-74
2022/04/30 11:57:49;;;;;;;8.20;4.05;;;21.60;33.20;;;;;;5091734;28;20024;-74
2022/04/30 12:00:17;;;;;;;10.25;3.42;;;21.60;32.20;;;;;;5090770;28;20452;-74
2022/04/30 12:02:46;;;;;;;7.80;4.13;;;21.50;32.70;;;;;;5090887;28;20036;-74
2022/04/30 12:05:12;;;;;;;10.10;3.45;;;21.40;32.70;;;;;;5089906;28;20085;-73
2022/04/30 12:07:45;;;;;;;11.18;4.47;;;21.30;33.40;;;;;;5091061;28;20487;-74
2022/04/30 12:10:23;;;;;;;4.68;3.50;;;21.30;33.20;;;;;;5090330;28;20050;-73
2022/04/30 12:12:51;;;;;;;4.85;3.10;;;21.10;32.80;;;;;;5090906;28;20036;-74
2022/04/30 12:15:20;;;;;;;7.65;4.07;;;21.00;33.40;;;;;;5089588;28;20051;-74
2022/04/30 12:17:46;;;;;;;4.80;3.30;;;21.00;33.50;;;;;;5094026;28;20114;-73
2022/04/30 12:26:04;;;;;;;7.15;3.30;;;20.80;33.70;;;;;;5095231;28;20063;-73
2022/04/30 12:28:41;;;;;;;4.28;3.17;;;20.80;34.20;;;;;;5094319;28;20028;-73
2022/04/30 12:31:10;;;;;;;12.43;5.70;;;20.80;34.10;;;;;;5092726;28;20110;-72
2022/04/30 12:33:47;;;;;;;7.90;3.03;;;20.70;34.10;;;;;;5093568;28;20047;-73
2022/04/30 12:36:14;;;;;;;5.28;2.97;;;20.70;34.30;;;;;;5094426;28;20020;-73
2022/04/30 12:38:40;;;;;;;6.93;3.75;;;20.70;34.10;;;;;;5094748;28;20043;-75
2022/04/30 12:41:06;;;;;;;4.55;2.95;;;20.70;34.00;;;;;;5094880;28;20028;-73
2022/04/30 12:43:36;;;;;;;5.03;2.90;;;20.70;33.30;;;;;;5095166;28;20051;-74
2022/04/30 12:46:05;;;;;;;5.95;2.95;;;20.60;33.90;;;;;;5095066;28;20047;-74
2022/04/30 12:48:34;;;;;;;4.15;3.25;;;20.60;33.90;;;;;;5094807;28;20027;-74
2022/04/30 12:50:59;;;;;;;5.85;2.97;;;20.50;33.40;;;;;;5101941;28;20494;-74
2022/04/30 12:53:25;;;;;;;5.68;3.38;;;20.40;34.10;;;;;;5114764;28;20020;-74
2022/04/30 12:55:54;;;;;;;7.63;3.67;;;20.40;34.10;;;;;;5115292;28;20016;-74
2022/04/30 12:58:20;;;;;;;5.30;3.10;;;20.40;33.70;;;;;;5114598;28;20035;-73
2022/04/30 13:00:46;;;;;;;8.75;3.03;;;20.30;34.40;;;;;;5115132;28;20028;-73
2022/04/30 13:03:11;;;;;;;8.70;2.97;;;20.20;34.50;;;;;;5114518;28;20482;-73
2022/04/30 13:05:37;;;;;;;11.10;3.30;;;20.20;34.20;;;;;;5105574;28;20016;-74
2022/04/30 13:08:03;;;;;;;4.95;2.92;;;20.20;33.40;;;;;;5094593;28;20032;-74
2022/04/30 13:13:32;;;;;;;5.88;2.55;;;20.20;33.00;;;;;;5102845;28;20530;-74
2022/04/30 13:16:09;;;;;;;4.10;2.90;;;20.30;33.90;;;;;;5100291;28;20036;-74
2022/04/30 13:18:36;;;;;;;5.60;2.50;;;20.30;32.30;;;;;;5099660;28;20110;-74
2022/04/30 13:21:03;;;;;;;3.70;2.70;;;20.30;32.30;;;;;;5101139;28;20028;-74
2022/04/30 13:23:29;;;;;;;8.50;3.10;;;20.20;32.70;;;;;;5093228;28;20039;-73
2022/04/30 13:25:55;;;;;;;3.83;2.70;;;20.20;33.00;;;;;;5093629;28;20024;-73